createdAt,value
2022-10-19T00:02:37.225Z,100.00
2022-10-19T00:05:41.749Z,100.00
2022-10-19T00:08:45.429Z,100.00
2022-10-19T00:11:50.439Z,100.00
2022-10-19T00:14:53.779Z,100.00
2022-10-19T00:17:57.001Z,100.00
2022-10-19T00:21:06.306Z,100.00
2022-10-19T00:24:09.972Z,100.00
2022-10-19T00:27:13.269Z,100.00
2022-10-19T00:30:17.717Z,100.00
2022-10-19T00:33:22.633Z,100.00
2022-10-19T00:36:29.515Z,100.00
2022-10-19T00:39:32.698Z,100.00
2022-10-19T00:42:36.015Z,100.00
2022-10-19T00:45:39.236Z,100.00
2022-10-19T00:48:42.610Z,100.00
2022-10-19T00:51:51.305Z,100.00
2022-10-19T00:54:56.769Z,100.00
2022-10-19T00:58:00.804Z,100.00
2022-10-19T01:01:06.117Z,100.00
2022-10-19T01:04:09.555Z,100.00
2022-10-19T01:07:13.709Z,100.00
2022-10-19T01:10:17.791Z,100.00
2022-10-19T01:13:49.973Z,100.00
2022-10-19T01:17:26.932Z,100.00
2022-10-19T01:20:57.731Z,100.00
2022-10-19T01:24:38.454Z,99.48
2022-10-19T01:28:19.535Z,98.72
2022-10-19T01:32:02.607Z,98.41
2022-10-19T01:35:11.689Z,98.54
2022-10-19T01:38:29.790Z,98.75
2022-10-19T01:41:36.939Z,99.14
2022-10-19T01:45:00.199Z,99.48
2022-10-19T01:48:12.465Z,99.81
2022-10-19T01:51:25.965Z,100.00
2022-10-19T01:54:36.438Z,100.00
2022-10-19T01:57:47.481Z,100.00
2022-10-19T02:00:53.926Z,100.00
2022-10-19T02:03:58.433Z,100.00
2022-10-19T02:07:04.563Z,100.00
2022-10-19T02:10:08.695Z,100.00
2022-10-19T02:13:15.670Z,100.00
2022-10-19T02:16:25.751Z,100.00
2022-10-19T02:19:29.108Z,100.00
2022-10-19T02:22:32.584Z,100.00
2022-10-19T02:25:36.911Z,100.00
2022-10-19T02:28:40.130Z,100.00
2022-10-19T02:31:45.492Z,100.00
2022-10-19T02:34:48.675Z,100.00
2022-10-19T02:37:53.052Z,100.00
2022-10-19T02:41:11.713Z,100.00
2022-10-19T02:44:24.442Z,100.00
2022-10-19T02:47:45.544Z,100.00
2022-10-19T02:50:49.734Z,100.00
2022-10-19T02:53:53.261Z,100.00
2022-10-19T02:56:57.843Z,100.00
2022-10-19T03:00:01.209Z,100.00
2022-10-19T03:03:05.184Z,100.00
2022-10-19T03:06:08.352Z,100.00
2022-10-19T03:09:11.838Z,100.00
2022-10-19T03:12:15.850Z,100.00
2022-10-19T03:15:19.835Z,100.00
2022-10-19T03:18:22.836Z,100.00
2022-10-19T03:21:26.176Z,100.00
2022-10-19T03:24:30.828Z,100.00
2022-10-19T03:27:34.415Z,100.00
2022-10-19T03:30:42.611Z,100.00
2022-10-19T03:33:46.151Z,100.00
2022-10-19T03:36:49.338Z,100.00
2022-10-19T03:39:52.890Z,100.00
2022-10-19T03:42:56.203Z,100.00
2022-10-19T03:45:59.447Z,100.00
2022-10-19T03:49:03.844Z,100.00
2022-10-19T03:52:10.162Z,100.00
2022-10-19T03:55:13.716Z,100.00
2022-10-19T03:58:17.051Z,100.00
2022-10-19T04:01:27.220Z,100.00
2022-10-19T04:04:30.628Z,100.00
2022-10-19T04:07:33.840Z,100.00
2022-10-19T04:10:39.205Z,100.00
2022-10-19T04:13:43.062Z,100.00
2022-10-19T04:16:46.347Z,100.00
2022-10-19T04:19:49.832Z,100.00
2022-10-19T04:22:53.691Z,100.00
2022-10-19T04:26:05.023Z,100.00
2022-10-19T04:29:09.212Z,100.00
2022-10-19T04:32:12.549Z,100.00
2022-10-19T04:35:17.804Z,100.00
2022-10-19T04:38:29.910Z,100.00
2022-10-19T04:41:34.993Z,100.00
2022-10-19T04:44:39.736Z,100.00
2022-10-19T04:47:42.974Z,100.00
2022-10-19T04:50:47.683Z,100.00
2022-10-19T04:53:59.613Z,100.00
2022-10-19T04:57:03.023Z,100.00
2022-10-19T05:00:07.977Z,100.00
2022-10-19T05:03:11.150Z,100.00
2022-10-19T05:06:15.948Z,100.00
2022-10-19T05:09:18.995Z,100.00
2022-10-19T05:12:23.988Z,100.00
2022-10-19T05:15:27.089Z,100.00
2022-10-19T05:18:30.681Z,100.00
2022-10-19T05:21:33.895Z,100.00
2022-10-19T05:24:37.299Z,100.00
2022-10-19T05:27:40.540Z,100.00
2022-10-19T05:30:49.082Z,100.00
2022-10-19T05:33:52.323Z,100.00
2022-10-19T05:36:56.719Z,100.00
2022-10-19T05:39:59.862Z,100.00
2022-10-19T05:43:03.094Z,100.00
2022-10-19T05:46:08.603Z,100.00
2022-10-19T05:49:13.102Z,100.00
2022-10-19T05:52:18.070Z,100.00
2022-10-19T05:55:22.301Z,100.00
2022-10-19T05:58:25.897Z,100.00
2022-10-19T06:01:30.560Z,100.00
2022-10-19T06:04:35.070Z,100.00
2022-10-19T06:07:38.100Z,100.00
2022-10-19T06:10:44.085Z,100.00
2022-10-19T06:13:50.606Z,100.00
2022-10-19T06:16:53.863Z,100.00
2022-10-19T06:19:56.926Z,100.00
2022-10-19T06:23:00.625Z,100.00
2022-10-19T06:26:06.909Z,100.00
2022-10-19T06:29:10.542Z,100.00
2022-10-19T06:32:13.734Z,100.00
2022-10-19T06:35:17.487Z,99.72
2022-10-19T06:38:20.570Z,99.47
2022-10-19T06:41:24.209Z,97.10
2022-10-19T06:44:27.551Z,95.17
2022-10-19T06:47:34.121Z,93.12
2022-10-19T06:50:37.867Z,90.82
2022-10-19T06:53:41.306Z,88.54
2022-10-19T06:56:44.536Z,86.82
2022-10-19T06:59:51.449Z,82.74
2022-10-19T07:02:58.327Z,82.44
2022-10-19T07:06:04.209Z,82.42
2022-10-19T07:09:09.819Z,82.40
2022-10-19T07:12:13.126Z,79.92
2022-10-19T07:15:17.394Z,78.27
2022-10-19T07:18:20.583Z,77.58
2022-10-19T07:21:24.598Z,77.25
2022-10-19T07:24:27.933Z,78.83
2022-10-19T07:27:36.709Z,78.26
2022-10-19T07:30:42.454Z,78.63
2022-10-19T07:33:45.527Z,75.20
2022-10-19T07:36:49.380Z,76.62
2022-10-19T07:39:52.811Z,75.22
2022-10-19T07:42:56.269Z,75.25
2022-10-19T07:46:05.930Z,73.95
2022-10-19T07:49:13.966Z,72.63
2022-10-19T07:52:17.249Z,72.26
2022-10-19T07:55:20.535Z,72.78
2022-10-19T07:58:23.609Z,72.94
2022-10-19T08:01:32.712Z,73.82
2022-10-19T08:05:01.240Z,74.18
2022-10-19T08:08:00.025Z,73.64
2022-10-19T08:11:08.660Z,71.06
2022-10-19T08:14:11.687Z,72.34
2022-10-19T08:17:17.785Z,71.79
2022-10-19T08:20:21.360Z,66.41
2022-10-19T08:23:24.964Z,67.62
2022-10-19T08:26:30.225Z,65.84
2022-10-19T08:29:33.803Z,64.17
2022-10-19T08:32:38.104Z,63.58
2022-10-19T08:35:41.696Z,62.68
2022-10-19T08:38:49.125Z,60.94
2022-10-19T08:41:58.769Z,60.38
2022-10-19T08:45:25.975Z,59.39
2022-10-19T08:48:33.530Z,60.29
2022-10-19T08:51:40.384Z,59.67
2022-10-19T08:54:49.840Z,58.78
2022-10-19T08:58:24.860Z,57.28
2022-10-19T09:01:40.912Z,58.75
2022-10-19T09:04:50.532Z,60.33
2022-10-19T09:07:54.916Z,57.55
2022-10-19T09:10:59.149Z,57.17
2022-10-19T09:14:16.393Z,59.50
2022-10-19T09:17:21.649Z,57.86
2022-10-19T09:20:48.159Z,57.01
2022-10-19T09:23:55.713Z,56.76
2022-10-19T09:27:01.004Z,55.85
2022-10-19T09:30:16.056Z,53.01
2022-10-19T09:33:27.273Z,54.33
2022-10-19T09:36:50.011Z,54.01
2022-10-19T09:39:55.782Z,52.15
2022-10-19T09:42:59.710Z,52.51
2022-10-19T09:46:19.774Z,51.59
2022-10-19T09:50:05.628Z,49.27
2022-10-19T09:53:19.515Z,51.89
2022-10-19T09:56:24.385Z,52.34
2022-10-19T09:59:33.234Z,52.50
2022-10-19T10:02:36.762Z,50.37
2022-10-19T10:05:41.313Z,51.84
2022-10-19T10:08:51.183Z,51.71
2022-10-19T10:11:59.419Z,52.03
2022-10-19T10:15:06.261Z,53.03
2022-10-19T10:18:15.824Z,51.07
2022-10-19T10:21:47.229Z,52.99
2022-10-19T10:24:53.811Z,52.95
2022-10-19T10:28:02.912Z,54.92
2022-10-19T10:31:09.265Z,55.22
2022-10-19T10:34:30.268Z,54.07
2022-10-19T10:37:43.744Z,51.75
2022-10-19T10:41:12.188Z,50.40
2022-10-19T10:44:23.389Z,48.38
2022-10-19T10:47:27.876Z,47.74
2022-10-19T10:50:36.200Z,48.23
2022-10-19T10:53:43.526Z,48.45
2022-10-19T10:57:13.318Z,46.52
2022-10-19T11:00:20.236Z,45.73
2022-10-19T11:03:29.003Z,46.41
2022-10-19T11:06:42.271Z,45.44
2022-10-19T11:09:58.738Z,44.77
2022-10-19T11:13:10.419Z,44.68
2022-10-19T11:16:19.784Z,43.73
2022-10-19T11:19:35.405Z,44.31
2022-10-19T11:22:49.305Z,43.79
2022-10-19T11:26:03.111Z,43.77
2022-10-19T11:29:46.021Z,44.68
2022-10-19T11:32:58.858Z,44.75
2022-10-19T11:36:17.938Z,44.91
2022-10-19T11:39:39.512Z,44.49
2022-10-19T11:42:54.931Z,44.99
2022-10-19T11:46:20.274Z,44.87
2022-10-19T11:49:49.311Z,45.59
2022-10-19T11:52:59.362Z,44.89
2022-10-19T11:56:05.811Z,45.08
2022-10-19T11:59:53.613Z,44.58
2022-10-19T12:03:09.059Z,44.29
2022-10-19T12:06:37.495Z,43.82
2022-10-19T12:09:48.311Z,44.95
2022-10-19T12:12:59.088Z,44.00
2022-10-19T12:16:04.450Z,43.50
2022-10-19T12:19:16.469Z,44.29
2022-10-19T12:22:28.394Z,43.96
2022-10-19T12:25:34.642Z,44.79
2022-10-19T12:28:40.636Z,45.61
2022-10-19T12:31:46.494Z,46.12
2022-10-19T12:35:21.627Z,44.64
2022-10-19T12:38:30.853Z,45.40
2022-10-19T12:41:45.130Z,44.97
2022-10-19T12:45:09.730Z,44.97
2022-10-19T12:48:21.767Z,45.05
2022-10-19T12:51:25.542Z,45.57
2022-10-19T12:54:32.081Z,45.42
2022-10-19T12:57:40.368Z,45.86
2022-10-19T13:01:00.774Z,46.17
2022-10-19T13:04:11.632Z,46.91
2022-10-19T13:07:18.512Z,46.30
2022-10-19T13:10:27.681Z,45.90
2022-10-19T13:13:59.192Z,46.72
2022-10-19T13:17:03.172Z,46.14
2022-10-19T13:20:15.424Z,46.87
2022-10-19T13:23:38.734Z,45.80
2022-10-19T13:26:44.925Z,46.24
2022-10-19T13:29:50.264Z,45.36
2022-10-19T13:32:53.005Z,45.67
2022-10-19T13:35:59.369Z,45.10
2022-10-19T13:39:07.896Z,45.39
2022-10-19T13:42:28.493Z,44.41
2022-10-19T13:45:31.713Z,45.07
2022-10-19T13:49:06.919Z,45.11
2022-10-19T13:52:34.166Z,45.11
2022-10-19T13:55:48.582Z,45.31
2022-10-19T13:59:10.689Z,45.70
2022-10-19T14:02:42.357Z,46.33
2022-10-19T14:06:03.469Z,46.64
2022-10-19T14:09:27.365Z,47.29
2022-10-19T14:12:34.131Z,47.22
2022-10-19T14:15:37.179Z,47.44
2022-10-19T14:18:42.465Z,46.82
2022-10-19T14:21:45.866Z,48.48
2022-10-19T14:24:49.324Z,49.28
2022-10-19T14:28:02.192Z,49.64
2022-10-19T14:31:21.921Z,49.15
2022-10-19T14:34:25.004Z,49.63
2022-10-19T14:37:28.414Z,49.20
2022-10-19T14:40:41.864Z,49.98
2022-10-19T14:43:47.815Z,48.72
2022-10-19T14:46:50.875Z,49.72
2022-10-19T14:49:54.223Z,48.77
2022-10-19T14:53:10.413Z,48.31
2022-10-19T14:56:25.165Z,48.12
2022-10-19T14:59:50.929Z,48.16
2022-10-19T15:03:20.747Z,48.49
2022-10-19T15:06:33.047Z,49.57
2022-10-19T15:09:48.275Z,49.21
2022-10-19T15:12:57.518Z,50.47
2022-10-19T15:16:01.115Z,50.54
2022-10-19T15:19:07.430Z,51.56
2022-10-19T15:22:37.819Z,52.47
2022-10-19T15:25:42.879Z,53.85
2022-10-19T15:28:47.656Z,53.28
2022-10-19T15:31:56.422Z,51.94
2022-10-19T15:34:59.675Z,51.40
2022-10-19T15:38:35.766Z,51.39
2022-10-19T15:41:40.693Z,51.85
2022-10-19T15:44:44.935Z,51.21
2022-10-19T15:48:08.174Z,52.30
2022-10-19T15:51:24.077Z,52.96
2022-10-19T15:54:28.214Z,53.52
2022-10-19T15:57:38.108Z,53.98
2022-10-19T16:00:43.331Z,53.56
2022-10-19T16:03:50.322Z,55.71
2022-10-19T16:06:54.894Z,55.45
2022-10-19T16:09:59.973Z,56.31
2022-10-19T16:13:03.442Z,56.83
2022-10-19T16:16:11.796Z,56.32
2022-10-19T16:19:17.523Z,56.11
2022-10-19T16:22:22.797Z,57.35
2022-10-19T16:25:26.396Z,58.64
2022-10-19T16:28:30.853Z,57.29
2022-10-19T16:31:34.756Z,57.82
2022-10-19T16:34:39.046Z,58.66
2022-10-19T16:37:42.997Z,58.38
2022-10-19T16:40:47.806Z,57.93
2022-10-19T16:43:57.561Z,58.52
2022-10-19T16:47:03.186Z,58.77
2022-10-19T16:50:11.676Z,59.62
2022-10-19T16:53:15.778Z,60.48
2022-10-19T16:56:20.574Z,61.28
2022-10-19T16:59:25.609Z,60.69
2022-10-19T17:02:30.681Z,61.07
2022-10-19T17:05:38.552Z,60.13
2022-10-19T17:09:30.230Z,60.08
2022-10-19T17:12:12.406Z,59.75
2022-10-19T17:15:41.520Z,60.50
2022-10-19T17:18:43.326Z,61.10
2022-10-19T17:21:49.338Z,61.37
2022-10-19T17:24:55.937Z,61.25
2022-10-19T17:28:01.228Z,61.72
2022-10-19T17:31:11.459Z,62.67
2022-10-19T17:34:16.179Z,63.78
2022-10-19T17:37:21.285Z,63.54
2022-10-19T17:40:33.623Z,64.12
2022-10-19T17:43:40.087Z,64.74
2022-10-19T17:46:45.029Z,65.47
2022-10-19T17:49:51.023Z,66.58
2022-10-19T17:52:56.751Z,66.98
2022-10-19T17:56:03.860Z,66.68
2022-10-19T17:59:09.615Z,66.89
2022-10-19T18:02:13.701Z,68.56
2022-10-19T18:05:18.745Z,69.38
2022-10-19T18:08:25.979Z,70.74
2022-10-19T18:11:40.359Z,71.39
2022-10-19T18:14:45.662Z,71.53
2022-10-19T18:17:50.105Z,72.26
2022-10-19T18:20:59.711Z,73.15
2022-10-19T18:24:09.148Z,74.58
2022-10-19T18:27:16.792Z,75.26
2022-10-19T18:30:21.874Z,76.25
2022-10-19T18:33:30.232Z,77.13
2022-10-19T18:36:38.896Z,76.72
2022-10-19T18:39:43.457Z,76.81
2022-10-19T18:42:48.648Z,74.84
2022-10-19T18:45:56.376Z,73.86
2022-10-19T18:49:02.081Z,71.98
2022-10-19T18:52:10.325Z,70.06
2022-10-19T18:55:16.566Z,71.57
2022-10-19T18:58:23.832Z,71.66
2022-10-19T19:01:29.956Z,69.05
2022-10-19T19:04:37.199Z,68.41
2022-10-19T19:07:42.128Z,69.82
2022-10-19T19:10:47.796Z,69.04
2022-10-19T19:14:00.426Z,66.94
2022-10-19T19:17:05.488Z,67.30
2022-10-19T19:20:10.858Z,67.48
2022-10-19T19:23:22.051Z,66.95
2022-10-19T19:26:29.308Z,67.22
2022-10-19T19:29:34.284Z,67.91
2022-10-19T19:32:41.907Z,68.52
2022-10-19T19:35:48.346Z,69.73
2022-10-19T19:38:55.630Z,70.52
2022-10-19T19:42:00.322Z,71.09
2022-10-19T19:45:10.523Z,71.62
2022-10-19T19:48:14.951Z,72.60
2022-10-19T19:51:21.574Z,72.63
2022-10-19T19:54:27.294Z,73.17
2022-10-19T19:57:31.893Z,73.42
2022-10-19T20:00:48.344Z,73.96
2022-10-19T20:04:11.809Z,75.15
2022-10-19T20:07:17.160Z,76.03
2022-10-19T20:10:22.889Z,75.66
2022-10-19T20:13:51.699Z,76.16
2022-10-19T20:16:57.809Z,75.57
2022-10-19T20:20:03.623Z,74.58
2022-10-19T20:23:08.645Z,74.47
2022-10-19T20:26:18.969Z,73.41
2022-10-19T20:29:37.710Z,72.50
2022-10-19T20:32:45.798Z,73.16
2022-10-19T20:35:53.050Z,73.81
2022-10-19T20:38:59.343Z,74.16
2022-10-19T20:42:04.063Z,74.54
2022-10-19T20:45:08.473Z,74.58
2022-10-19T20:48:13.110Z,74.60
2022-10-19T20:51:30.930Z,74.55
2022-10-19T20:54:38.481Z,74.25
2022-10-19T20:57:42.141Z,75.05
2022-10-19T21:00:47.367Z,75.34
2022-10-19T21:03:54.985Z,75.44
2022-10-19T21:06:58.786Z,76.16
2022-10-19T21:10:03.148Z,77.13
2022-10-19T21:13:07.983Z,77.70
2022-10-19T21:16:20.490Z,78.17
2022-10-19T21:19:25.846Z,78.76
2022-10-19T21:22:28.986Z,80.20
2022-10-19T21:25:32.475Z,81.01
2022-10-19T21:28:36.257Z,81.91
2022-10-19T21:31:44.127Z,82.60
2022-10-19T21:34:49.459Z,83.23
2022-10-19T21:37:53.034Z,83.07
2022-10-19T21:40:59.652Z,82.65
2022-10-19T21:44:04.165Z,82.28
2022-10-19T21:47:08.067Z,82.07
2022-10-19T21:50:11.499Z,81.57
2022-10-19T21:53:19.531Z,80.69
2022-10-19T21:56:22.916Z,80.34
2022-10-19T21:59:26.416Z,80.26
2022-10-19T22:02:29.722Z,80.84
2022-10-19T22:05:33.605Z,82.02
2022-10-19T22:08:36.986Z,82.41
2022-10-19T22:11:40.975Z,82.40
2022-10-19T22:14:45.362Z,82.26
2022-10-19T22:17:48.699Z,81.65
2022-10-19T22:20:53.517Z,81.19
2022-10-19T22:24:02.390Z,81.17
2022-10-19T22:27:05.583Z,81.11
2022-10-19T22:30:09.543Z,80.72
2022-10-19T22:33:12.708Z,81.22
2022-10-19T22:36:16.665Z,81.81
2022-10-19T22:39:21.593Z,82.53
2022-10-19T22:42:25.071Z,83.76
2022-10-19T22:45:29.666Z,84.62
2022-10-19T22:48:35.419Z,84.95
2022-10-19T22:51:38.866Z,85.58
2022-10-19T22:54:43.733Z,86.14
2022-10-19T22:57:47.946Z,87.17
2022-10-19T23:01:06.006Z,88.25
2022-10-19T23:04:09.233Z,88.61
2022-10-19T23:07:12.888Z,89.13
2022-10-19T23:10:16.366Z,89.64
2022-10-19T23:13:20.971Z,90.23
2022-10-19T23:16:24.143Z,91.03
2022-10-19T23:19:28.224Z,91.69
2022-10-19T23:22:31.804Z,92.21
2022-10-19T23:25:35.726Z,92.35
2022-10-19T23:28:40.993Z,92.51
2022-10-19T23:31:44.420Z,92.81
2022-10-19T23:34:48.518Z,93.25
2022-10-19T23:37:52.005Z,93.69
2022-10-19T23:40:55.437Z,94.09
2022-10-19T23:43:58.955Z,94.65
2022-10-19T23:47:02.038Z,94.79
2022-10-19T23:50:06.254Z,94.84
2022-10-19T23:53:09.601Z,95.07
2022-10-19T23:56:14.759Z,95.31
2022-10-19T23:59:18.052Z,95.62
